5M9

Marion-Crittenden County Airport

Marion, Kentucky, USA
METAR K5M9 161215Z AUTO 00000KT 10SM CLR 03/02 A3017 RMK AO2 T00260015
Observed Flight Rules
Dec-16 @ 12:15 UTC (30 minutes ago) Visual Flight Rules
Visibility Clouds
10 miles
  • Clear skies
Temperatures Readings
Current 3°C / 37°F
Dewpoint 2°C / 36°F
Humidity 93%
Altimeter 30.17" Hg
Pressure 1022 hPa
Elevation 199
METAR K5M9 161215Z AUTO 00000KT 10SM CLR 03/02 A3017 RMK AO2 T00260015
Observed Flight Rules
Dec-16 @ 12:15 UTC
(30 minutes ago)
VFR
Clouds
  • Clear skies
Temperature Dewpoint
3°C / 37°F 2°C / 36°F
Humidity Altimeter Pressure
93% 30.17" Hg 1022 hPa